sensor_id;sensor_type;location;lat;lon;timestamp;P1;durP1;ratioP1;P2;durP2;ratioP2
25637;SDS011;13496;51.040;13.680;2023-06-22T00:02:00;9.60;;;7.75;;
25637;SDS011;13496;51.040;13.680;2023-06-22T00:07:01;8.65;;;7.63;;
25637;SDS011;13496;51.040;13.680;2023-06-22T00:12:03;8.57;;;7.88;;
25637;SDS011;13496;51.040;13.680;2023-06-22T00:17:05;9.02;;;7.50;;
25637;SDS011;13496;51.040;13.680;2023-06-22T00:22:07;7.55;;;6.90;;
25637;SDS011;13496;51.040;13.680;2023-06-22T00:27:09;7.80;;;7.03;;
25637;SDS011;13496;51.040;13.680;2023-06-22T00:32:10;8.35;;;7.03;;
25637;SDS011;13496;51.040;13.680;2023-06-22T00:37:12;8.05;;;7.15;;
25637;SDS011;13496;51.040;13.680;2023-06-22T00:42:14;8.00;;;6.15;;
25637;SDS011;13496;51.040;13.680;2023-06-22T00:47:16;7.47;;;6.78;;
25637;SDS011;13496;51.040;13.680;2023-06-22T00:52:19;7.15;;;6.45;;
25637;SDS011;13496;51.040;13.680;2023-06-22T00:57:28;7.32;;;6.63;;
25637;SDS011;13496;51.040;13.680;2023-06-22T01:02:31;7.00;;;6.40;;
25637;SDS011;13496;51.040;13.680;2023-06-22T01:07:39;7.45;;;6.78;;
25637;SDS011;13496;51.040;13.680;2023-06-22T01:12:48;7.63;;;6.97;;
25637;SDS011;13496;51.040;13.680;2023-06-22T01:17:56;6.90;;;6.30;;
25637;SDS011;13496;51.040;13.680;2023-06-22T01:33:46;6.57;;;6.07;;
25637;SDS011;13496;51.040;13.680;2023-06-22T01:38:51;7.13;;;6.47;;
25637;SDS011;13496;51.040;13.680;2023-06-22T01:43:54;7.43;;;6.72;;
25637;SDS011;13496;51.040;13.680;2023-06-22T01:48:56;7.18;;;6.57;;
25637;SDS011;13496;51.040;13.680;2023-06-22T01:53:58;6.65;;;6.05;;
25637;SDS011;13496;51.040;13.680;2023-06-22T02:04:24;8.00;;;6.45;;
25637;SDS011;13496;51.040;13.680;2023-06-22T02:09:29;7.35;;;6.65;;
25637;SDS011;13496;51.040;13.680;2023-06-22T02:14:33;5.93;;;5.50;;
25637;SDS011;13496;51.040;13.680;2023-06-22T02:19:37;6.80;;;6.20;;
25637;SDS011;13496;51.040;13.680;2023-06-22T02:24:38;7.00;;;6.35;;
25637;SDS011;13496;51.040;13.680;2023-06-22T02:29:40;7.22;;;6.63;;
25637;SDS011;13496;51.040;13.680;2023-06-22T02:34:43;7.57;;;6.97;;
25637;SDS011;13496;51.040;13.680;2023-06-22T02:39:48;7.38;;;6.68;;
25637;SDS011;13496;51.040;13.680;2023-06-22T02:44:50;8.10;;;7.40;;
25637;SDS011;13496;51.040;13.680;2023-06-22T02:49:52;7.47;;;6.85;;
25637;SDS011;13496;51.040;13.680;2023-06-22T02:54:54;7.47;;;6.82;;
25637;SDS011;13496;51.040;13.680;2023-06-22T02:59:56;8.07;;;7.38;;
25637;SDS011;13496;51.040;13.680;2023-06-22T03:04:57;7.70;;;7.00;;
25637;SDS011;13496;51.040;13.680;2023-06-22T03:09:59;8.18;;;7.47;;
25637;SDS011;13496;51.040;13.680;2023-06-22T03:15:01;7.47;;;6.75;;
25637;SDS011;13496;51.040;13.680;2023-06-22T03:20:03;7.40;;;6.60;;
25637;SDS011;13496;51.040;13.680;2023-06-22T03:25:10;7.32;;;6.68;;
25637;SDS011;13496;51.040;13.680;2023-06-22T03:30:15;7.60;;;6.90;;
25637;SDS011;13496;51.040;13.680;2023-06-22T03:35:17;6.53;;;5.90;;
25637;SDS011;13496;51.040;13.680;2023-06-22T03:40:19;7.03;;;6.43;;
25637;SDS011;13496;51.040;13.680;2023-06-22T03:45:21;6.43;;;5.93;;
25637;SDS011;13496;51.040;13.680;2023-06-22T03:50:22;7.00;;;6.40;;
25637;SDS011;13496;51.040;13.680;2023-06-22T03:55:24;6.47;;;5.95;;
25637;SDS011;13496;51.040;13.680;2023-06-22T04:00:26;6.97;;;6.28;;
25637;SDS011;13496;51.040;13.680;2023-06-22T04:05:27;8.43;;;6.88;;
25637;SDS011;13496;51.040;13.680;2023-06-22T04:10:29;7.00;;;6.40;;
25637;SDS011;13496;51.040;13.680;2023-06-22T04:15:31;8.10;;;7.30;;
25637;SDS011;13496;51.040;13.680;2023-06-22T04:20:32;8.13;;;6.68;;
25637;SDS011;13496;51.040;13.680;2023-06-22T04:25:34;8.60;;;7.63;;
25637;SDS011;13496;51.040;13.680;2023-06-22T04:30:36;8.57;;;7.47;;
25637;SDS011;13496;51.040;13.680;2023-06-22T04:35:37;9.23;;;7.60;;
25637;SDS011;13496;51.040;13.680;2023-06-22T04:40:42;8.65;;;7.68;;
25637;SDS011;13496;51.040;13.680;2023-06-22T04:45:44;8.52;;;7.82;;
25637;SDS011;13496;51.040;13.680;2023-06-22T04:50:45;9.15;;;7.95;;
25637;SDS011;13496;51.040;13.680;2023-06-22T04:55:47;10.05;;;8.23;;
25637;SDS011;13496;51.040;13.680;2023-06-22T05:00:50;8.65;;;7.80;;
25637;SDS011;13496;51.040;13.680;2023-06-22T05:05:53;10.40;;;8.40;;
25637;SDS011;13496;51.040;13.680;2023-06-22T05:10:55;9.18;;;8.38;;
25637;SDS011;13496;51.040;13.680;2023-06-22T05:15:56;9.93;;;8.68;;
25637;SDS011;13496;51.040;13.680;2023-06-22T05:21:02;8.95;;;7.93;;
25637;SDS011;13496;51.040;13.680;2023-06-22T05:26:04;9.50;;;8.60;;
25637;SDS011;13496;51.040;13.680;2023-06-22T05:31:06;9.68;;;8.77;;
25637;SDS011;13496;51.040;13.680;2023-06-22T05:36:07;10.07;;;8.90;;
25637;SDS011;13496;51.040;13.680;2023-06-22T05:41:10;10.70;;;8.93;;
25637;SDS011;13496;51.040;13.680;2023-06-22T05:46:11;16.50;;;8.80;;
25637;SDS011;13496;51.040;13.680;2023-06-22T05:51:13;9.95;;;8.73;;
25637;SDS011;13496;51.040;13.680;2023-06-22T05:56:15;9.38;;;8.40;;
25637;SDS011;13496;51.040;13.680;2023-06-22T06:01:17;9.80;;;8.52;;
25637;SDS011;13496;51.040;13.680;2023-06-22T06:06:19;9.30;;;8.45;;
25637;SDS011;13496;51.040;13.680;2023-06-22T06:11:23;9.45;;;8.45;;
25637;SDS011;13496;51.040;13.680;2023-06-22T06:16:24;9.75;;;8.60;;
25637;SDS011;13496;51.040;13.680;2023-06-22T06:21:26;9.90;;;8.90;;
25637;SDS011;13496;51.040;13.680;2023-06-22T06:26:28;9.70;;;8.73;;
25637;SDS011;13496;51.040;13.680;2023-06-22T06:31:30;9.20;;;8.30;;
25637;SDS011;13496;51.040;13.680;2023-06-22T06:36:32;9.80;;;8.82;;
25637;SDS011;13496;51.040;13.680;2023-06-22T06:41:34;9.02;;;8.13;;
25637;SDS011;13496;51.040;13.680;2023-06-22T06:46:35;8.75;;;7.85;;
25637;SDS011;13496;51.040;13.680;2023-06-22T06:51:37;9.13;;;8.32;;
25637;SDS011;13496;51.040;13.680;2023-06-22T06:56:39;8.90;;;8.18;;
25637;SDS011;13496;51.040;13.680;2023-06-22T07:01:41;8.95;;;8.05;;
25637;SDS011;13496;51.040;13.680;2023-06-22T07:06:43;9.23;;;8.15;;
25637;SDS011;13496;51.040;13.680;2023-06-22T07:11:45;8.80;;;7.90;;
25637;SDS011;13496;51.040;13.680;2023-06-22T07:16:46;8.68;;;7.82;;
25637;SDS011;13496;51.040;13.680;2023-06-22T07:21:48;8.95;;;8.15;;
25637;SDS011;13496;51.040;13.680;2023-06-22T07:26:50;9.48;;;8.48;;
25637;SDS011;13496;51.040;13.680;2023-06-22T07:31:52;9.32;;;8.52;;
25637;SDS011;13496;51.040;13.680;2023-06-22T07:36:54;11.02;;;8.98;;
25637;SDS011;13496;51.040;13.680;2023-06-22T07:41:56;9.98;;;9.07;;
25637;SDS011;13496;51.040;13.680;2023-06-22T07:46:57;10.43;;;9.07;;
25637;SDS011;13496;51.040;13.680;2023-06-22T07:51:59;9.90;;;9.02;;
25637;SDS011;13496;51.040;13.680;2023-06-22T07:57:02;9.75;;;8.85;;
25637;SDS011;13496;51.040;13.680;2023-06-22T08:02:04;10.65;;;9.65;;
25637;SDS011;13496;51.040;13.680;2023-06-22T08:07:07;9.40;;;8.50;;
25637;SDS011;13496;51.040;13.680;2023-06-22T08:12:09;9.60;;;8.82;;
25637;SDS011;13496;51.040;13.680;2023-06-22T08:17:10;9.32;;;8.52;;
25637;SDS011;13496;51.040;13.680;2023-06-22T08:22:12;9.50;;;8.70;;
25637;SDS011;13496;51.040;13.680;2023-06-22T08:27:15;9.52;;;8.70;;
25637;SDS011;13496;51.040;13.680;2023-06-22T08:32:19;10.35;;;9.20;;
25637;SDS011;13496;51.040;13.680;2023-06-22T08:37:22;9.98;;;8.23;;
25637;SDS011;13496;51.040;13.680;2023-06-22T08:42:31;9.45;;;8.60;;
25637;SDS011;13496;51.040;13.680;2023-06-22T08:47:33;10.05;;;9.05;;
25637;SDS011;13496;51.040;13.680;2023-06-22T08:52:35;9.15;;;8.35;;
25637;SDS011;13496;51.040;13.680;2023-06-22T08:57:37;9.23;;;8.43;;
25637;SDS011;13496;51.040;13.680;2023-06-22T09:02:40;9.48;;;8.55;;
25637;SDS011;13496;51.040;13.680;2023-06-22T09:07:42;8.85;;;8.05;;
25637;SDS011;13496;51.040;13.680;2023-06-22T09:12:44;8.70;;;7.90;;
25637;SDS011;13496;51.040;13.680;2023-06-22T09:17:46;9.27;;;8.27;;
25637;SDS011;13496;51.040;13.680;2023-06-22T09:22:48;9.18;;;8.38;;
25637;SDS011;13496;51.040;13.680;2023-06-22T09:27:49;9.10;;;8.32;;
25637;SDS011;13496;51.040;13.680;2023-06-22T09:32:51;9.00;;;8.30;;
25637;SDS011;13496;51.040;13.680;2023-06-22T09:37:53;8.63;;;7.88;;
25637;SDS011;13496;51.040;13.680;2023-06-22T09:42:55;9.20;;;8.40;;
25637;SDS011;13496;51.040;13.680;2023-06-22T09:47:56;9.65;;;8.73;;
25637;SDS011;13496;51.040;13.680;2023-06-22T09:52:58;9.57;;;8.77;;
25637;SDS011;13496;51.040;13.680;2023-06-22T09:58:00;9.55;;;8.65;;
25637;SDS011;13496;51.040;13.680;2023-06-22T10:03:02;8.95;;;8.15;;
25637;SDS011;13496;51.040;13.680;2023-06-22T10:08:03;9.32;;;8.43;;
25637;SDS011;13496;51.040;13.680;2023-06-22T10:13:08;9.32;;;8.52;;
25637;SDS011;13496;51.040;13.680;2023-06-22T10:18:15;9.57;;;8.77;;
25637;SDS011;13496;51.040;13.680;2023-06-22T10:23:18;8.80;;;8.00;;
25637;SDS011;13496;51.040;13.680;2023-06-22T10:28:20;9.15;;;8.25;;
25637;SDS011;13496;51.040;13.680;2023-06-22T10:33:22;13.27;;;8.63;;
25637;SDS011;13496;51.040;13.680;2023-06-22T10:38:23;9.25;;;8.48;;
25637;SDS011;13496;51.040;13.680;2023-06-22T10:43:25;8.50;;;7.70;;
25637;SDS011;13496;51.040;13.680;2023-06-22T10:48:27;8.45;;;7.68;;
25637;SDS011;13496;51.040;13.680;2023-06-22T10:53:28;9.15;;;8.00;;
25637;SDS011;13496;51.040;13.680;2023-06-22T10:58:30;16.50;;;8.63;;
25637;SDS011;13496;51.040;13.680;2023-06-22T11:03:32;9.50;;;8.52;;
25637;SDS011;13496;51.040;13.680;2023-06-22T11:08:33;9.52;;;8.57;;
25637;SDS011;13496;51.040;13.680;2023-06-22T11:13:35;8.85;;;8.05;;
25637;SDS011;13496;51.040;13.680;2023-06-22T11:18:37;11.52;;;8.57;;
25637;SDS011;13496;51.040;13.680;2023-06-22T11:23:39;9.15;;;8.30;;
25637;SDS011;13496;51.040;13.680;2023-06-22T11:28:40;8.85;;;8.05;;
25637;SDS011;13496;51.040;13.680;2023-06-22T11:33:42;9.15;;;8.38;;
25637;SDS011;13496;51.040;13.680;2023-06-22T11:38:46;9.20;;;8.40;;
25637;SDS011;13496;51.040;13.680;2023-06-22T11:43:47;8.77;;;8.07;;
25637;SDS011;13496;51.040;13.680;2023-06-22T11:48:49;8.35;;;7.65;;
25637;SDS011;13496;51.040;13.680;2023-06-22T11:53:51;8.88;;;7.97;;
25637;SDS011;13496;51.040;13.680;2023-06-22T11:58:53;8.55;;;7.80;;
25637;SDS011;13496;51.040;13.680;2023-06-22T12:03:55;9.00;;;8.18;;
25637;SDS011;13496;51.040;13.680;2023-06-22T12:08:57;9.05;;;8.35;;
25637;SDS011;13496;51.040;13.680;2023-06-22T12:13:58;8.45;;;7.68;;
25637;SDS011;13496;51.040;13.680;2023-06-22T12:19:03;9.32;;;8.52;;
25637;SDS011;13496;51.040;13.680;2023-06-22T12:24:05;9.55;;;8.70;;
25637;SDS011;13496;51.040;13.680;2023-06-22T12:29:07;9.30;;;8.50;;
25637;SDS011;13496;51.040;13.680;2023-06-22T12:34:08;8.75;;;8.05;;
25637;SDS011;13496;51.040;13.680;2023-06-22T12:39:10;9.10;;;8.30;;
25637;SDS011;13496;51.040;13.680;2023-06-22T12:44:12;8.98;;;8.18;;
25637;SDS011;13496;51.040;13.680;2023-06-22T12:49:13;8.23;;;7.50;;
25637;SDS011;13496;51.040;13.680;2023-06-22T12:54:15;9.32;;;7.95;;
25637;SDS011;13496;51.040;13.680;2023-06-22T12:59:17;9.02;;;8.00;;
25637;SDS011;13496;51.040;13.680;2023-06-22T13:04:19;9.05;;;7.97;;
25637;SDS011;13496;51.040;13.680;2023-06-22T13:09:20;7.65;;;7.03;;
25637;SDS011;13496;51.040;13.680;2023-06-22T13:14:22;8.13;;;7.40;;
25637;SDS011;13496;51.040;13.680;2023-06-22T13:19:24;8.38;;;7.68;;
25637;SDS011;13496;51.040;13.680;2023-06-22T13:24:27;8.60;;;7.80;;
25637;SDS011;13496;51.040;13.680;2023-06-22T13:29:28;8.05;;;7.20;;
25637;SDS011;13496;51.040;13.680;2023-06-22T13:34:30;9.40;;;8.48;;
25637;SDS011;13496;51.040;13.680;2023-06-22T13:39:32;8.05;;;7.40;;
25637;SDS011;13496;51.040;13.680;2023-06-22T13:44:33;8.98;;;7.90;;
25637;SDS011;13496;51.040;13.680;2023-06-22T13:49:35;9.23;;;8.25;;
25637;SDS011;13496;51.040;13.680;2023-06-22T13:54:37;8.02;;;7.22;;
25637;SDS011;13496;51.040;13.680;2023-06-22T13:59:38;8.52;;;7.63;;
25637;SDS011;13496;51.040;13.680;2023-06-22T14:04:40;7.63;;;7.03;;
25637;SDS011;13496;51.040;13.680;2023-06-22T14:09:42;8.50;;;7.68;;
25637;SDS011;13496;51.040;13.680;2023-06-22T14:14:44;8.95;;;8.05;;
25637;SDS011;13496;51.040;13.680;2023-06-22T14:19:45;8.40;;;7.70;;
25637;SDS011;13496;51.040;13.680;2023-06-22T14:24:47;8.32;;;7.63;;
25637;SDS011;13496;51.040;13.680;2023-06-22T14:29:50;8.40;;;7.47;;
25637;SDS011;13496;51.040;13.680;2023-06-22T14:34:51;11.52;;;7.68;;
25637;SDS011;13496;51.040;13.680;2023-06-22T14:39:53;8.98;;;8.07;;
25637;SDS011;13496;51.040;13.680;2023-06-22T14:44:55;8.65;;;7.40;;
25637;SDS011;13496;51.040;13.680;2023-06-22T14:49:56;8.80;;;7.97;;
25637;SDS011;13496;51.040;13.680;2023-06-22T14:54:58;7.95;;;7.32;;
25637;SDS011;13496;51.040;13.680;2023-06-22T15:00:00;8.13;;;7.40;;
25637;SDS011;13496;51.040;13.680;2023-06-22T15:05:03;8.10;;;7.50;;
25637;SDS011;13496;51.040;13.680;2023-06-22T15:10:05;7.65;;;6.95;;
25637;SDS011;13496;51.040;13.680;2023-06-22T15:15:07;7.63;;;6.93;;
25637;SDS011;13496;51.040;13.680;2023-06-22T15:20:09;7.03;;;6.43;;
25637;SDS011;13496;51.040;13.680;2023-06-22T15:25:11;8.70;;;7.90;;
25637;SDS011;13496;51.040;13.680;2023-06-22T15:30:13;8.18;;;7.47;;
25637;SDS011;13496;51.040;13.680;2023-06-22T15:35:15;8.13;;;7.40;;
25637;SDS011;13496;51.040;13.680;2023-06-22T15:40:18;8.50;;;7.80;;
25637;SDS011;13496;51.040;13.680;2023-06-22T15:45:20;13.20;;;8.13;;
25637;SDS011;13496;51.040;13.680;2023-06-22T15:50:22;8.85;;;7.50;;
25637;SDS011;13496;51.040;13.680;2023-06-22T15:55:23;8.30;;;7.60;;
25637;SDS011;13496;51.040;13.680;2023-06-22T16:00:25;8.43;;;7.72;;
25637;SDS011;13496;51.040;13.680;2023-06-22T16:05:27;8.18;;;7.38;;
25637;SDS011;13496;51.040;13.680;2023-06-22T16:10:29;8.93;;;8.10;;
25637;SDS011;13496;51.040;13.680;2023-06-22T16:15:31;8.65;;;8.02;;
25637;SDS011;13496;51.040;13.680;2023-06-22T16:20:32;8.55;;;7.85;;
25637;SDS011;13496;51.040;13.680;2023-06-22T16:25:34;9.35;;;8.50;;
25637;SDS011;13496;51.040;13.680;2023-06-22T16:30:36;9.55;;;8.55;;
25637;SDS011;13496;51.040;13.680;2023-06-22T16:35:37;9.05;;;8.25;;
25637;SDS011;13496;51.040;13.680;2023-06-22T16:40:41;9.38;;;8.57;;
25637;SDS011;13496;51.040;13.680;2023-06-22T16:45:42;9.75;;;8.98;;
25637;SDS011;13496;51.040;13.680;2023-06-22T16:50:44;9.23;;;8.43;;
25637;SDS011;13496;51.040;13.680;2023-06-22T16:55:47;9.52;;;8.80;;
25637;SDS011;13496;51.040;13.680;2023-06-22T17:00:51;11.02;;;9.32;;
25637;SDS011;13496;51.040;13.680;2023-06-22T17:05:56;11.32;;;9.05;;
25637;SDS011;13496;51.040;13.680;2023-06-22T17:10:58;10.18;;;9.35;;
25637;SDS011;13496;51.040;13.680;2023-06-22T17:16:00;9.13;;;8.43;;
25637;SDS011;13496;51.040;13.680;2023-06-22T17:21:02;10.93;;;9.48;;
25637;SDS011;13496;51.040;13.680;2023-06-22T17:26:05;9.75;;;8.82;;
25637;SDS011;13496;51.040;13.680;2023-06-22T17:31:08;10.60;;;8.30;;
25637;SDS011;13496;51.040;13.680;2023-06-22T17:36:11;9.65;;;8.75;;
25637;SDS011;13496;51.040;13.680;2023-06-22T17:41:15;10.10;;;9.20;;
25637;SDS011;13496;51.040;13.680;2023-06-22T17:46:16;9.55;;;8.75;;
25637;SDS011;13496;51.040;13.680;2023-06-22T17:51:18;9.70;;;8.90;;
25637;SDS011;13496;51.040;13.680;2023-06-22T17:56:20;10.13;;;9.23;;
25637;SDS011;13496;51.040;13.680;2023-06-22T18:01:27;9.80;;;8.90;;
25637;SDS011;13496;51.040;13.680;2023-06-22T18:06:30;9.63;;;8.82;;
25637;SDS011;13496;51.040;13.680;2023-06-22T18:11:35;10.25;;;9.25;;
25637;SDS011;13496;51.040;13.680;2023-06-22T18:16:40;10.95;;;9.10;;
25637;SDS011;13496;51.040;13.680;2023-06-22T18:21:45;9.57;;;8.60;;
25637;SDS011;13496;51.040;13.680;2023-06-22T18:26:50;9.60;;;8.70;;
25637;SDS011;13496;51.040;13.680;2023-06-22T18:31:53;10.90;;;9.75;;
25637;SDS011;13496;51.040;13.680;2023-06-22T18:36:55;10.10;;;9.13;;
25637;SDS011;13496;51.040;13.680;2023-06-22T18:42:01;10.68;;;9.73;;
25637;SDS011;13496;51.040;13.680;2023-06-22T18:47:04;11.55;;;9.65;;
25637;SDS011;13496;51.040;13.680;2023-06-22T18:57:21;11.45;;;9.90;;
25637;SDS011;13496;51.040;13.680;2023-06-22T19:12:55;9.35;;;8.48;;
25637;SDS011;13496;51.040;13.680;2023-06-22T19:17:59;9.77;;;8.82;;
25637;SDS011;13496;51.040;13.680;2023-06-22T19:23:02;9.27;;;8.48;;
25637;SDS011;13496;51.040;13.680;2023-06-22T19:28:06;9.60;;;8.80;;
25637;SDS011;13496;51.040;13.680;2023-06-22T19:33:12;10.38;;;8.93;;
25637;SDS011;13496;51.040;13.680;2023-06-22T19:38:17;11.10;;;10.10;;
25637;SDS011;13496;51.040;13.680;2023-06-22T19:43:19;11.55;;;10.55;;
25637;SDS011;13496;51.040;13.680;2023-06-22T19:48:24;10.90;;;9.90;;
25637;SDS011;13496;51.040;13.680;2023-06-22T19:53:27;11.65;;;10.68;;
25637;SDS011;13496;51.040;13.680;2023-06-22T19:58:31;10.77;;;9.80;;
25637;SDS011;13496;51.040;13.680;2023-06-22T20:03:36;13.10;;;10.38;;
25637;SDS011;13496;51.040;13.680;2023-06-22T20:08:49;11.18;;;9.60;;
25637;SDS011;13496;51.040;13.680;2023-06-22T20:13:52;11.88;;;10.75;;
25637;SDS011;13496;51.040;13.680;2023-06-22T20:19:10;11.50;;;10.43;;
25637;SDS011;13496;51.040;13.680;2023-06-22T20:24:14;11.82;;;10.65;;
25637;SDS011;13496;51.040;13.680;2023-06-22T20:29:28;12.07;;;10.95;;
25637;SDS011;13496;51.040;13.680;2023-06-22T20:39:36;11.48;;;10.48;;
25637;SDS011;13496;51.040;13.680;2023-06-22T20:44:38;12.35;;;11.25;;
25637;SDS011;13496;51.040;13.680;2023-06-22T20:49:40;12.30;;;11.20;;
25637;SDS011;13496;51.040;13.680;2023-06-22T20:54:41;12.68;;;11.00;;
25637;SDS011;13496;51.040;13.680;2023-06-22T20:59:43;11.95;;;10.95;;
25637;SDS011;13496;51.040;13.680;2023-06-22T21:04:45;18.80;;;12.07;;
25637;SDS011;13496;51.040;13.680;2023-06-22T21:09:50;21.17;;;11.63;;
25637;SDS011;13496;51.040;13.680;2023-06-22T21:14:52;25.67;;;11.93;;
25637;SDS011;13496;51.040;13.680;2023-06-22T21:19:53;19.38;;;11.60;;
25637;SDS011;13496;51.040;13.680;2023-06-22T21:25:05;16.65;;;11.93;;
25637;SDS011;13496;51.040;13.680;2023-06-22T21:30:09;16.13;;;10.68;;
25637;SDS011;13496;51.040;13.680;2023-06-22T21:35:12;13.75;;;9.80;;
25637;SDS011;13496;51.040;13.680;2023-06-22T21:40:15;11.70;;;10.52;;
25637;SDS011;13496;51.040;13.680;2023-06-22T21:45:16;11.63;;;9.73;;
25637;SDS011;13496;51.040;13.680;2023-06-22T21:50:19;11.32;;;9.82;;
25637;SDS011;13496;51.040;13.680;2023-06-22T21:55:21;10.77;;;9.55;;
25637;SDS011;13496;51.040;13.680;2023-06-22T22:00:22;10.68;;;9.65;;
25637;SDS011;13496;51.040;13.680;2023-06-22T22:05:24;9.82;;;8.98;;
25637;SDS011;13496;51.040;13.680;2023-06-22T22:10:26;10.05;;;9.05;;
25637;SDS011;13496;51.040;13.680;2023-06-22T22:15:27;11.48;;;9.43;;
25637;SDS011;13496;51.040;13.680;2023-06-22T22:20:30;9.60;;;8.80;;
25637;SDS011;13496;51.040;13.680;2023-06-22T22:25:31;10.35;;;9.45;;
25637;SDS011;13496;51.040;13.680;2023-06-22T22:30:34;10.25;;;9.45;;
25637;SDS011;13496;51.040;13.680;2023-06-22T22:35:35;10.70;;;9.80;;
25637;SDS011;13496;51.040;13.680;2023-06-22T22:40:37;10.32;;;9.43;;
25637;SDS011;13496;51.040;13.680;2023-06-22T22:45:39;10.77;;;9.77;;
25637;SDS011;13496;51.040;13.680;2023-06-22T22:50:40;10.48;;;9.45;;
25637;SDS011;13496;51.040;13.680;2023-06-22T22:55:42;10.55;;;9.65;;
25637;SDS011;13496;51.040;13.680;2023-06-22T23:00:44;10.43;;;9.35;;
25637;SDS011;13496;51.040;13.680;2023-06-22T23:05:46;9.30;;;8.50;;
25637;SDS011;13496;51.040;13.680;2023-06-22T23:10:48;10.00;;;9.20;;
25637;SDS011;13496;51.040;13.680;2023-06-22T23:15:49;9.50;;;8.60;;
25637;SDS011;13496;51.040;13.680;2023-06-22T23:20:52;10.38;;;9.35;;
25637;SDS011;13496;51.040;13.680;2023-06-22T23:25:54;10.73;;;9.10;;
25637;SDS011;13496;51.040;13.680;2023-06-22T23:30:55;9.35;;;8.50;;
25637;SDS011;13496;51.040;13.680;2023-06-22T23:35:57;8.13;;;7.35;;
25637;SDS011;13496;51.040;13.680;2023-06-22T23:41:00;9.00;;;8.23;;
25637;SDS011;13496;51.040;13.680;2023-06-22T23:46:02;8.88;;;8.07;;
25637;SDS011;13496;51.040;13.680;2023-06-22T23:51:04;8.00;;;7.20;;
25637;SDS011;13496;51.040;13.680;2023-06-22T23:56:06;9.20;;;7.40;;
